Pagrindinis puslapis
METAR-TAF:

METAR-TAF

Oro uostai :

Erfurtas, Vokietija

platuma: 50-59N, ilguma: 010-58E, Aukštis: 315 m

Dabartinis oras

Ataskaita buvo paskelbta 6 minutes, ne 10:20 UTC
Vėjas 4 kt iš Šiaurės, svyruoja nuo Pietvakarių ir Šiaurės/Šiaurės Rytų
Temperatūra 14°C
Drėgmė 55%
Slėgis 1029 hPa
Matomumas 10 km arba daugiau
Mažai debesys ne aukštis 4000 ft

METAR: EDDE 201020Z 35004KT 220V030 9999 FEW040 14/05 Q1029 NOSIG

Laikas: 12:26 (10:26 UTC)

Prognozė

Ataskaita buvo paskelbta 5 valandos ir 26 minutes, ne 05:00 UTC
Prognozė galioja nuo 20 metu 06 UTC su 21 metu 06 UTC
Vėjas 4 kt iš Pietvakarių
Matomumas 10 km arba daugiau
nėra debesų žemiau 1500 m ir nėra kamuolinių lietaus debesų
Tapsmas
nuo 20 metu 10 UTC su 20 metu 12 UTC
Vėjas 5 kt iš Šiaurės Rytų
Tapsmas
nuo 20 metu 19 UTC su 20 metu 21 UTC
Vėjas 3 kt nuo kintamojo kryptimis

TAF: EDDE 200500Z 2006/2106 23004KT CAVOK BECMG 2010/2012 04005KT BECMG 2019/2021 VRB03KT

Orai ataskaitas ir orų prognozės (METAR, TAF).

turimą stotys yra geltonos ir raudonos taškus žemėlapyje.

Perkelti pele per norėdami pamatyti stoties vardą.

Tada spustelėkite, norėdami matyti oro stebėjimo ir prognozės.

Norėdami pakeisti žemėlapį: spustelėkite ant žalios mygtukų su juodo kryžiaus žemyn,; žalią mygtuką su brūkšneliu, jei norite nutolinti; arba žalių rodyklių gretimoms žemėlapius.


METAR-TAF: